createdAt,value
2018-02-13T00:00:45.769Z,31.38
2018-02-13T00:03:14.073Z,31.40
2018-02-13T00:05:42.365Z,31.35
2018-02-13T00:08:10.798Z,31.38
2018-02-13T00:10:39.099Z,31.37
2018-02-13T00:13:07.421Z,31.39
2018-02-13T00:15:35.709Z,31.34
2018-02-13T00:18:03.997Z,31.36
2018-02-13T00:20:32.290Z,31.38
2018-02-13T00:23:02.349Z,31.35
2018-02-13T00:25:30.644Z,31.36
2018-02-13T00:27:58.954Z,31.35
2018-02-13T00:30:27.268Z,31.35
2018-02-13T00:32:55.587Z,31.38
2018-02-13T00:35:23.877Z,31.37
2018-02-13T00:37:52.165Z,31.38
2018-02-13T00:40:20.467Z,31.38
2018-02-13T00:42:48.779Z,31.36
2018-02-13T00:45:17.070Z,31.38
2018-02-13T00:47:45.377Z,31.40
2018-02-13T00:50:13.686Z,31.36
2018-02-13T00:52:41.978Z,31.39
2018-02-13T00:55:10.290Z,31.38
2018-02-13T00:57:38.604Z,31.40
2018-02-13T01:00:06.897Z,31.42
2018-02-13T01:02:35.208Z,31.44
2018-02-13T01:05:03.511Z,31.44
2018-02-13T01:07:31.815Z,31.50
2018-02-13T01:10:00.100Z,31.47
2018-02-13T01:12:28.406Z,31.53
2018-02-13T01:14:56.711Z,31.51
2018-02-13T01:17:24.998Z,31.56
2018-02-13T01:19:53.301Z,31.49
2018-02-13T01:22:21.589Z,31.50
2018-02-13T01:24:49.887Z,31.50
2018-02-13T01:27:18.218Z,31.47
2018-02-13T01:29:46.511Z,31.47
2018-02-13T01:32:14.800Z,31.47
2018-02-13T01:34:43.099Z,31.47
2018-02-13T01:37:11.399Z,31.46
2018-02-13T01:39:39.693Z,31.46
2018-02-13T01:42:07.987Z,31.45
2018-02-13T01:44:36.287Z,31.49
2018-02-13T01:47:04.588Z,31.52
2018-02-13T01:49:32.909Z,31.48
2018-02-13T01:52:01.209Z,31.44
2018-02-13T01:54:29.505Z,31.47
2018-02-13T01:56:57.802Z,31.44
2018-02-13T01:59:26.089Z,31.45
2018-02-13T02:01:54.388Z,31.45
2018-02-13T02:04:22.811Z,31.44
2018-02-13T02:06:51.144Z,31.43
2018-02-13T02:09:19.442Z,31.45
2018-02-13T02:11:47.748Z,31.47
2018-02-13T02:14:16.059Z,31.45
2018-02-13T02:16:44.343Z,31.46
2018-02-13T02:19:12.643Z,31.44
2018-02-13T02:21:40.956Z,31.48
2018-02-13T02:24:09.264Z,31.51
2018-02-13T02:26:37.558Z,31.51
2018-02-13T02:29:06.038Z,31.49
2018-02-13T02:31:34.342Z,31.46
2018-02-13T02:34:02.639Z,31.46
2018-02-13T02:36:30.925Z,31.49
2018-02-13T02:38:59.223Z,31.46
2018-02-13T02:41:27.514Z,31.46
2018-02-13T02:43:56.302Z,31.42
2018-02-13T02:46:24.641Z,31.30
2018-02-13T02:48:52.930Z,31.19
2018-02-13T02:51:21.256Z,31.12
2018-02-13T02:53:49.557Z,31.17
2018-02-13T02:56:17.842Z,31.13
2018-02-13T02:58:46.138Z,31.04
2018-02-13T03:01:14.440Z,31.03
2018-02-13T03:03:42.738Z,31.01
2018-02-13T03:06:11.107Z,30.91
2018-02-13T03:08:39.436Z,30.90
2018-02-13T03:11:07.741Z,30.81
2018-02-13T03:13:36.055Z,30.77
2018-02-13T03:16:04.356Z,30.71
2018-02-13T03:18:32.645Z,30.79
2018-02-13T03:21:00.938Z,30.36
2018-02-13T03:23:29.259Z,30.45
2018-02-13T03:25:57.569Z,30.16
2018-02-13T03:28:25.858Z,30.57
2018-02-13T03:30:54.161Z,30.68
2018-02-13T03:33:22.456Z,30.65
2018-02-13T03:35:50.756Z,30.71
2018-02-13T03:38:19.075Z,30.79
2018-02-13T03:40:47.377Z,30.87
2018-02-13T03:43:15.684Z,30.32
2018-02-13T03:45:43.992Z,30.62
2018-02-13T03:48:12.282Z,30.76
2018-02-13T03:50:40.575Z,30.84
2018-02-13T03:53:08.934Z,30.90
2018-02-13T03:55:37.368Z,30.99
2018-02-13T03:58:05.674Z,31.02
2018-02-13T04:00:33.964Z,31.05
2018-02-13T04:03:02.273Z,31.05
2018-02-13T04:05:30.580Z,31.08
2018-02-13T04:07:58.871Z,31.12
2018-02-13T04:10:27.163Z,31.16
2018-02-13T04:12:55.451Z,31.19
2018-02-13T04:15:23.749Z,31.24
2018-02-13T04:17:52.066Z,31.36
2018-02-13T04:20:20.392Z,31.47
2018-02-13T04:22:48.692Z,31.50
2018-02-13T04:25:16.985Z,31.29
2018-02-13T04:27:45.269Z,31.38
2018-02-13T04:30:13.558Z,32.68
2018-02-13T04:32:41.876Z,31.92
2018-02-13T04:35:10.165Z,31.96
2018-02-13T04:37:38.496Z,31.26
2018-02-13T04:40:06.801Z,30.92
2018-02-13T04:42:35.096Z,31.69
2018-02-13T04:45:03.381Z,32.02
2018-02-13T04:47:31.680Z,32.22
2018-02-13T04:49:59.992Z,32.55
2018-02-13T04:52:28.287Z,32.82
2018-02-13T04:54:56.580Z,33.21
2018-02-13T04:57:24.875Z,33.45
2018-02-13T04:59:53.171Z,33.38
2018-02-13T05:02:21.492Z,33.65
2018-02-13T05:04:49.781Z,33.79
2018-02-13T05:07:18.083Z,33.83
2018-02-13T05:09:46.407Z,33.80
2018-02-13T05:12:14.693Z,33.96
2018-02-13T05:14:43.004Z,34.00
2018-02-13T05:17:11.318Z,33.94
2018-02-13T05:19:39.676Z,34.01
2018-02-13T05:22:08.140Z,33.98
2018-02-13T05:24:36.444Z,34.11
2018-02-13T05:27:04.753Z,34.04
2018-02-13T05:29:33.047Z,34.09
2018-02-13T05:32:01.368Z,34.09
2018-02-13T05:34:29.665Z,34.04
2018-02-13T05:36:57.953Z,33.91
2018-02-13T05:39:26.257Z,33.87
2018-02-13T05:41:54.549Z,33.90
2018-02-13T05:44:22.839Z,33.97
2018-02-13T05:46:51.127Z,33.89
2018-02-13T05:49:19.444Z,33.90
2018-02-13T05:51:47.755Z,33.79
2018-02-13T05:54:16.051Z,33.72
2018-02-13T05:56:44.365Z,33.81
2018-02-13T05:59:12.666Z,33.68
2018-02-13T06:01:40.955Z,33.74
2018-02-13T06:04:09.290Z,33.57
2018-02-13T06:06:37.591Z,33.61
2018-02-13T06:09:05.642Z,33.59
2018-02-13T06:11:33.947Z,33.64
2018-02-13T06:14:02.238Z,33.58
2018-02-13T06:16:30.531Z,33.55
2018-02-13T06:18:58.839Z,33.63
2018-02-13T06:21:27.178Z,33.53
2018-02-13T06:23:55.486Z,33.27
2018-02-13T06:26:23.789Z,33.09
2018-02-13T06:28:52.084Z,33.50
2018-02-13T06:31:20.385Z,33.96
2018-02-13T06:33:48.669Z,34.17
2018-02-13T06:36:16.970Z,33.83
2018-02-13T06:38:45.294Z,33.60
2018-02-13T06:41:13.598Z,33.37
2018-02-13T06:43:41.908Z,33.21
2018-02-13T06:46:10.245Z,32.99
2018-02-13T06:48:38.568Z,32.91
2018-02-13T06:51:06.877Z,32.93
2018-02-13T06:53:35.204Z,32.86
2018-02-13T06:56:03.512Z,32.88
2018-02-13T06:58:31.810Z,32.82
2018-02-13T07:01:00.158Z,32.81
2018-02-13T07:03:28.474Z,32.89
2018-02-13T07:05:56.864Z,32.88
2018-02-13T07:08:25.173Z,32.99
2018-02-13T07:10:53.283Z,32.93
2018-02-13T07:13:21.579Z,32.88
2018-02-13T07:15:49.890Z,32.83
2018-02-13T07:18:18.207Z,32.85
2018-02-13T07:20:46.506Z,32.89
2018-02-13T07:23:14.800Z,32.92
2018-02-13T07:25:43.131Z,32.99
2018-02-13T07:28:11.425Z,32.88
2018-02-13T07:30:39.724Z,32.70
2018-02-13T07:33:08.024Z,32.47
2018-02-13T07:35:36.337Z,32.27
2018-02-13T07:38:04.657Z,32.76
2018-02-13T07:40:32.963Z,32.43
2018-02-13T07:43:01.273Z,32.53
2018-02-13T07:45:29.395Z,32.78
2018-02-13T07:47:57.708Z,32.71
2018-02-13T07:50:26.006Z,32.69
2018-02-13T07:52:54.309Z,32.96
2018-02-13T07:55:22.616Z,32.92
2018-02-13T07:57:50.731Z,33.00
2018-02-13T08:00:19.188Z,33.01
2018-02-13T08:02:47.491Z,32.97
2018-02-13T08:05:15.798Z,32.63
2018-02-13T08:07:44.133Z,32.53
2018-02-13T08:10:12.639Z,32.58
2018-02-13T08:12:40.943Z,32.73
2018-02-13T08:15:09.248Z,32.94
2018-02-13T08:17:37.541Z,32.70
2018-02-13T08:20:05.838Z,32.97
2018-02-13T08:22:34.146Z,32.91
2018-02-13T08:25:02.455Z,32.86
2018-02-13T08:27:30.758Z,32.73
2018-02-13T08:29:59.058Z,32.58
2018-02-13T08:32:27.351Z,32.80
2018-02-13T08:34:55.659Z,32.66
2018-02-13T08:37:24.024Z,32.84
2018-02-13T08:39:53.342Z,32.64
2018-02-13T08:42:21.638Z,32.79
2018-02-13T08:44:49.939Z,32.65
2018-02-13T08:47:18.233Z,32.72
2018-02-13T08:49:46.518Z,32.63
2018-02-13T08:52:14.828Z,32.60
2018-02-13T08:54:43.127Z,32.80
2018-02-13T08:57:11.419Z,32.80
2018-02-13T08:59:39.731Z,32.73
2018-02-13T09:02:08.027Z,32.74
2018-02-13T09:04:36.323Z,32.71
2018-02-13T09:07:04.635Z,32.62
2018-02-13T09:09:32.871Z,32.64
2018-02-13T09:12:01.158Z,32.64
2018-02-13T09:14:29.454Z,32.61
2018-02-13T09:16:57.754Z,32.17
2018-02-13T09:19:26.064Z,32.05
2018-02-13T09:21:54.388Z,31.83
2018-02-13T09:24:22.669Z,32.00
2018-02-13T09:26:50.977Z,31.84
2018-02-13T09:29:19.300Z,32.20
2018-02-13T09:31:47.620Z,32.35
2018-02-13T09:34:15.965Z,32.17
2018-02-13T09:36:44.434Z,31.82
2018-02-13T09:39:12.740Z,32.16
2018-02-13T09:41:41.080Z,32.13
2018-02-13T09:44:09.386Z,31.75
2018-02-13T09:46:37.693Z,31.61
2018-02-13T09:49:05.993Z,31.90
2018-02-13T09:51:34.300Z,31.69
2018-02-13T09:54:02.601Z,31.55
2018-02-13T09:56:30.923Z,31.49
2018-02-13T09:58:59.236Z,31.20
2018-02-13T10:01:27.537Z,30.97
2018-02-13T10:03:55.831Z,30.99
2018-02-13T10:06:24.151Z,30.88
2018-02-13T10:08:52.535Z,30.83
2018-02-13T10:11:20.849Z,30.72
2018-02-13T10:13:49.145Z,30.67
2018-02-13T10:16:17.441Z,29.05
2018-02-13T10:18:45.749Z,28.71
2018-02-13T10:21:13.857Z,29.24
2018-02-13T10:23:41.990Z,29.43
2018-02-13T10:26:10.299Z,29.63
2018-02-13T10:28:38.610Z,29.80
2018-02-13T10:31:06.928Z,29.87
2018-02-13T10:33:35.235Z,30.05
2018-02-13T10:36:03.597Z,30.08
2018-02-13T10:38:31.917Z,30.14
2018-02-13T10:41:00.385Z,30.17
2018-02-13T10:43:28.691Z,30.13
2018-02-13T10:45:56.974Z,30.15
2018-02-13T10:48:25.301Z,30.14
2018-02-13T10:50:53.595Z,30.22
2018-02-13T10:53:21.902Z,30.24
2018-02-13T10:55:50.220Z,30.31
2018-02-13T10:58:18.509Z,29.33
2018-02-13T11:00:52.234Z,29.78
2018-02-13T11:03:20.534Z,30.09
2018-02-13T11:05:48.846Z,30.17
2018-02-13T11:08:17.151Z,30.11
2018-02-13T11:10:45.464Z,30.15
2018-02-13T11:13:13.770Z,30.19
2018-02-13T11:15:42.080Z,30.21
2018-02-13T11:18:10.374Z,30.27
2018-02-13T11:20:38.673Z,30.41
2018-02-13T11:23:06.958Z,30.43
2018-02-13T11:25:35.281Z,30.48
2018-02-13T11:28:03.566Z,30.50
2018-02-13T11:30:31.862Z,30.60
2018-02-13T11:33:00.189Z,30.66
2018-02-13T11:35:28.508Z,30.77
2018-02-13T11:37:56.800Z,30.82
2018-02-13T11:40:25.098Z,30.95
2018-02-13T11:42:53.393Z,30.96
2018-02-13T11:45:21.683Z,30.97
2018-02-13T11:47:50.017Z,31.03
2018-02-13T11:50:18.306Z,31.03
2018-02-13T11:52:46.618Z,31.07
2018-02-13T11:55:14.915Z,31.05
2018-02-13T11:57:43.238Z,31.07
2018-02-13T12:00:11.553Z,31.07
2018-02-13T12:02:39.834Z,31.10
2018-02-13T12:05:08.141Z,31.00
2018-02-13T12:07:36.488Z,31.04
2018-02-13T12:10:04.799Z,30.96
2018-02-13T12:12:33.119Z,30.91
2018-02-13T12:15:01.421Z,30.91
2018-02-13T12:17:29.726Z,30.94
2018-02-13T12:19:58.040Z,30.98
2018-02-13T12:22:26.325Z,31.08
2018-02-13T12:24:54.624Z,31.08
2018-02-13T12:27:22.939Z,31.06
2018-02-13T12:29:51.260Z,31.11
2018-02-13T12:32:19.570Z,31.08
2018-02-13T12:34:47.918Z,31.08
2018-02-13T12:37:16.407Z,31.07
2018-02-13T12:39:44.705Z,31.07
2018-02-13T12:42:13.012Z,31.07
2018-02-13T12:44:41.301Z,31.07
2018-02-13T12:47:09.613Z,31.09
2018-02-13T12:49:38.707Z,31.08
2018-02-13T12:52:07.007Z,31.06
2018-02-13T12:54:35.302Z,30.99
2018-02-13T12:57:03.604Z,30.87
2018-02-13T12:59:31.900Z,28.50
2018-02-13T13:02:00.195Z,27.80
2018-02-13T13:04:28.301Z,28.39
2018-02-13T13:06:56.593Z,29.76
2018-02-13T13:09:24.910Z,30.08
2018-02-13T13:11:53.212Z,30.22
2018-02-13T13:14:21.507Z,30.37
2018-02-13T13:16:49.834Z,30.50
2018-02-13T13:19:18.155Z,30.55
2018-02-13T13:21:46.456Z,29.46
2018-02-13T13:24:14.755Z,29.08
2018-02-13T13:26:43.076Z,30.12
2018-02-13T13:29:11.361Z,30.21
2018-02-13T13:31:39.456Z,30.34
2018-02-13T13:34:07.753Z,30.35
2018-02-13T13:36:36.209Z,30.44
2018-02-13T13:39:03.882Z,30.49
2018-02-13T13:41:32.322Z,30.55
2018-02-13T13:44:00.633Z,30.57
2018-02-13T13:46:28.944Z,30.62
2018-02-13T13:48:57.226Z,30.67
2018-02-13T13:51:25.549Z,30.69
2018-02-13T13:53:53.888Z,30.74
2018-02-13T13:56:22.202Z,30.80
2018-02-13T13:58:50.578Z,30.93
2018-02-13T14:01:18.947Z,30.87
2018-02-13T14:03:47.275Z,30.96
2018-02-13T14:06:15.577Z,30.94
2018-02-13T14:08:43.906Z,30.90
2018-02-13T15:16:26.020Z,28.00
2018-02-13T15:18:54.131Z,27.96
2018-02-13T15:21:22.459Z,28.35
2018-02-13T15:23:50.757Z,28.61
2018-02-13T15:26:19.053Z,28.83
2018-02-13T15:28:47.362Z,28.97
2018-02-13T15:31:15.668Z,29.08
2018-02-13T15:33:43.826Z,29.14
2018-02-13T15:36:12.124Z,29.21
2018-02-13T15:38:40.410Z,29.24
2018-02-13T15:41:08.725Z,29.29
2018-02-13T15:43:36.807Z,29.32
2018-02-13T15:46:05.143Z,27.30
2018-02-13T15:48:33.486Z,27.05
2018-02-13T15:51:01.781Z,27.49
2018-02-13T15:53:30.081Z,28.17
2018-02-13T15:55:58.383Z,28.66
2018-02-13T15:58:26.670Z,28.79
2018-02-13T16:00:54.976Z,28.95
2018-02-13T16:03:23.982Z,29.02
2018-02-13T16:05:52.281Z,29.16
2018-02-13T16:08:20.619Z,29.20
2018-02-13T16:13:38.051Z,29.36
2018-02-13T16:16:06.128Z,29.42
2018-02-13T16:18:34.437Z,29.42
2018-02-13T16:21:02.752Z,29.37
2018-02-13T16:23:31.054Z,29.38
2018-02-13T16:25:59.373Z,29.31
2018-02-13T16:28:27.678Z,29.27
2018-02-13T16:30:55.954Z,29.23
2018-02-13T16:33:24.268Z,29.18
2018-02-13T16:35:52.576Z,29.15
2018-02-13T16:38:20.874Z,29.12
2018-02-13T16:40:49.162Z,29.09
2018-02-13T16:43:17.468Z,29.07
2018-02-13T16:45:45.784Z,29.05
2018-02-13T16:48:14.070Z,29.04
2018-02-13T16:50:42.395Z,29.03
2018-02-13T16:53:10.708Z,29.02
2018-02-13T16:55:39.019Z,29.00
2018-02-13T16:58:07.330Z,29.01
2018-02-13T17:00:35.674Z,28.99
2018-02-13T17:03:04.008Z,29.01
2018-02-13T17:05:32.313Z,29.00
2018-02-13T17:08:00.718Z,29.01
2018-02-13T17:10:29.040Z,29.02
2018-02-13T17:12:57.337Z,29.02
2018-02-13T17:15:25.625Z,29.00
2018-02-13T17:17:53.924Z,29.00
2018-02-13T17:20:22.211Z,28.99
2018-02-13T17:22:50.521Z,28.98
2018-02-13T17:25:18.829Z,28.96
2018-02-13T17:27:47.178Z,28.96
2018-02-13T17:30:15.481Z,28.95
2018-02-13T17:32:43.796Z,28.96
2018-02-13T17:35:12.108Z,28.98
2018-02-13T17:37:40.394Z,29.01
2018-02-13T17:40:08.695Z,29.03
2018-02-13T17:42:37.021Z,29.10
2018-02-13T17:45:05.147Z,29.13
2018-02-13T17:47:33.461Z,29.15
2018-02-13T17:50:01.762Z,29.19
2018-02-13T17:52:30.074Z,29.21
2018-02-13T17:54:58.389Z,29.23
2018-02-13T17:57:26.689Z,29.30
2018-02-13T17:59:54.990Z,29.35
2018-02-13T18:02:23.155Z,29.37
2018-02-13T18:04:51.480Z,29.38
2018-02-13T18:07:19.834Z,29.42
2018-02-13T18:09:48.135Z,29.45
2018-02-13T18:12:16.456Z,29.44
2018-02-13T18:14:44.938Z,29.43
2018-02-13T18:17:13.314Z,29.40
2018-02-13T18:19:41.619Z,29.36
2018-02-13T18:22:09.926Z,29.34
2018-02-13T18:24:38.240Z,29.31
2018-02-13T18:27:06.568Z,29.29
2018-02-13T18:29:34.866Z,29.27
2018-02-13T18:32:04.075Z,29.25
2018-02-13T18:34:32.391Z,29.25
2018-02-13T18:37:00.500Z,29.24
2018-02-13T18:39:29.129Z,29.23
2018-02-13T18:41:57.423Z,29.24
2018-02-13T18:44:25.729Z,29.25
2018-02-13T18:46:54.047Z,29.26
2018-02-13T18:49:22.412Z,29.26
2018-02-13T18:51:51.783Z,29.26
2018-02-13T18:54:20.427Z,29.27
2018-02-13T18:56:49.334Z,29.30
2018-02-13T18:59:17.670Z,29.31
2018-02-13T19:01:46.035Z,29.31
2018-02-13T19:04:14.225Z,29.31
2018-02-13T19:06:42.549Z,29.32
2018-02-13T19:09:10.870Z,29.32
2018-02-13T19:11:39.273Z,29.31
2018-02-13T19:14:07.573Z,29.31
2018-02-13T19:16:35.863Z,29.30
2018-02-13T19:19:03.955Z,29.30
2018-02-13T19:21:32.241Z,29.29
2018-02-13T19:24:00.577Z,29.30
2018-02-13T19:26:28.942Z,29.29
2018-02-13T19:28:57.246Z,29.30
2018-02-13T19:31:25.559Z,29.29
2018-02-13T19:33:54.520Z,29.30
2018-02-13T19:36:23.929Z,29.31
2018-02-13T19:38:54.124Z,29.37
2018-02-13T19:41:25.264Z,29.42
2018-02-13T19:43:56.193Z,29.49
2018-02-13T19:46:25.395Z,29.54
2018-02-13T19:48:58.480Z,29.61
2018-02-13T19:51:28.822Z,29.65
2018-02-13T19:53:58.925Z,29.68
2018-02-13T19:56:29.024Z,29.73
2018-02-13T19:58:58.775Z,29.77
2018-02-13T20:01:28.416Z,29.80
2018-02-13T20:03:57.941Z,29.82
2018-02-13T20:06:27.286Z,29.86
2018-02-13T20:08:57.796Z,29.87
2018-02-13T20:11:27.260Z,29.90
2018-02-13T20:13:56.879Z,29.93
2018-02-13T20:16:26.944Z,29.95
2018-02-13T20:18:57.065Z,29.96
2018-02-13T20:21:27.276Z,29.98
2018-02-13T20:23:57.414Z,30.00
2018-02-13T20:26:27.502Z,30.01
2018-02-13T20:28:56.626Z,30.01
2018-02-13T20:31:25.940Z,30.02
2018-02-13T20:33:54.689Z,30.02
2018-02-13T20:36:23.003Z,30.02
2018-02-13T20:38:51.884Z,30.02
2018-02-13T20:41:20.986Z,30.01
2018-02-13T20:43:51.177Z,30.01
2018-02-13T20:46:21.074Z,30.01
2018-02-13T20:48:51.130Z,30.01
2018-02-13T20:51:21.106Z,30.01
2018-02-13T20:53:50.534Z,30.01
2018-02-13T20:56:19.772Z,30.02
2018-02-13T20:58:48.954Z,30.02
2018-02-13T21:01:17.394Z,30.01
2018-02-13T21:03:45.674Z,30.02
2018-02-13T21:06:14.036Z,30.02
2018-02-13T21:08:42.387Z,30.05
2018-02-13T21:11:11.135Z,30.04
2018-02-13T21:13:43.462Z,30.03
2018-02-13T21:16:11.921Z,30.05
2018-02-13T21:18:40.208Z,30.05
2018-02-13T21:21:08.509Z,30.07
2018-02-13T21:23:36.849Z,30.07
2018-02-13T21:26:06.030Z,30.07
2018-02-13T21:28:35.137Z,30.07
2018-02-13T21:31:03.772Z,30.09
2018-02-13T21:33:32.088Z,30.09
2018-02-13T21:36:00.368Z,30.10
2018-02-13T21:38:29.298Z,30.10
2018-02-13T21:40:57.710Z,30.10
2018-02-13T21:43:26.237Z,30.12
2018-02-13T21:45:54.098Z,30.12
2018-02-13T21:48:22.433Z,30.13
2018-02-13T21:50:50.899Z,30.13
2018-02-13T21:53:19.229Z,30.13
2018-02-13T21:55:47.555Z,30.13
2018-02-13T21:58:15.889Z,30.14
2018-02-13T22:00:44.207Z,30.14
2018-02-13T22:03:12.521Z,30.15
2018-02-13T22:05:40.821Z,30.15
2018-02-13T22:08:09.118Z,30.16
2018-02-13T22:10:37.408Z,30.16
2018-02-13T22:13:05.752Z,30.17
2018-02-13T22:15:34.033Z,30.19
2018-02-13T22:18:02.350Z,30.18
2018-02-13T22:20:30.668Z,30.18
2018-02-13T22:22:58.998Z,30.19
2018-02-13T22:25:26.872Z,30.20
2018-02-13T22:27:55.172Z,30.19
2018-02-13T22:30:23.514Z,30.21
2018-02-13T22:32:51.809Z,30.21
2018-02-13T22:35:20.112Z,30.23
2018-02-13T22:37:48.449Z,30.22
2018-02-13T22:40:16.748Z,30.22
2018-02-13T22:42:45.027Z,30.23
2018-02-13T22:45:13.317Z,30.23
2018-02-13T22:47:41.611Z,30.23
2018-02-13T22:50:09.830Z,30.23
2018-02-13T22:52:38.232Z,30.25
2018-02-13T22:55:06.521Z,30.26
2018-02-13T22:57:34.836Z,30.25
2018-02-13T23:00:03.126Z,30.25
2018-02-13T23:02:31.429Z,30.26
2018-02-13T23:04:59.903Z,30.26
2018-02-13T23:07:28.211Z,30.26
2018-02-13T23:09:56.491Z,30.27
2018-02-13T23:12:24.770Z,30.26
2018-02-13T23:14:53.097Z,30.26
2018-02-13T23:17:21.379Z,30.26
2018-02-13T23:19:49.665Z,30.26
2018-02-13T23:22:17.959Z,30.26
2018-02-13T23:24:46.311Z,30.26
2018-02-13T23:27:14.635Z,30.26
2018-02-13T23:29:42.933Z,30.26
2018-02-13T23:32:11.235Z,30.26
2018-02-13T23:34:39.544Z,30.26
2018-02-13T23:37:07.834Z,30.26
2018-02-13T23:39:36.163Z,30.26
2018-02-13T23:42:04.438Z,30.21
2018-02-13T23:44:32.910Z,30.25
2018-02-13T23:47:01.216Z,30.27
2018-02-13T23:49:29.494Z,30.27
2018-02-13T23:51:57.802Z,30.27
2018-02-13T23:54:26.089Z,30.27
2018-02-13T23:56:54.369Z,30.26
2018-02-13T23:59:22.672Z,30.27
